Lake Nipissing: Past 24 Hour Conditions

 

Windsor Airport

06:00 AM EST 21 January 2019
Disclaimer

This table is a summary of hourly weather conditions for the past 24 hours.
Please note that these observations might not always be representative of weather conditions over their associated marine area.

Date / Time
(EST)
Wind(knots) Conditions Visibility(km) Pressure(kPa) Air tempC) Relative humidity(%) Dew pointC) Wind Chill
21 January 2019
6:00 NW 9 gust 15 Clear 16 103.2 -19 67 -24 -29
5:00 NW 12 Clear 16 103.2 -19 65 -24 -30
4:00 NW 10 gust 16 Clear 16 103.1 -19 63 -24 -29
3:00 NW 13 gust 19 Clear 16 103.1 -19 60 -25 -30
2:00 NW 15 gust 21 Clear 16 103.0 -18 57 -25 -30
1:00 NW 17 gust 23 Clear 16 103.0 -18 58 -25 -30
0:00 NW 15 gust 23 Clear 16 102.9 -17 57 -24 -29
20 January 2019
23:00 NW 11 gust 18 Clear 16 102.9 -17 57 -24 -27
22:00 NNW 12 gust 20 Clear 16 102.9 -16 57 -23 -26
21:00 NNW 9 gust 15 Clear 16 102.8 -16 59 -22 -25
20:00 NNW 11 gust 19 Clear 16 102.8 -15 56 -22 -25
19:00 NNW 13 gust 19 Clear 16 102.7 -15 55 -22 -25
18:00 NNW 13 gust 20 Light Snow 5 102.6 -14 67 -19 -24
17:00 NNW 16 gust 23 Mostly Cloudy 16 102.5 -13 52 -21 -24
16:00 NNW 17 gust 24 Mostly Cloudy 16 102.4 -12 51 -21 -23
15:00 N 13 gust 23 Cloudy 16 102.3 -12 53 -19 -21
14:00 N 15 gust 22 Mostly Cloudy 16 102.2 -12 55 -19 -21
13:00 NNW 17 gust 24 Partly Cloudy 16 102.2 -11 55 -19 -22
12:00 N 17 gust 26 Sunny 16 102.1 -12 58 -19 -22
11:00 NNW 16 gust 23 Sunny 16 102.1 -13 66 -18 -23
10:00 NNW 17 gust 26 Sunny 16 102.0 -13 68 -18 -24
9:00 NNW 16 gust 25 Sunny 16 101.9 -14 71 -18 -25
8:00 NW 16 gust 22 Sunny 16 101.8 -15 75 -18 -26
7:00 NW 14 gust 22 Clear 16 101.7 -14 75 -17 -24
6:00 NNW 17 gust 30 Clear 16 101.6 -12 66 -17 -22

Zoom-in to make a selection

Map of Great Lakes - Lake Huron marine weather areas N Huron - 45003 W Erie - 45005 S Huron - 45008 Lake Ontario - 45012 Port Stanley - 45132 Prince Edward Point - 45135 Georgian Bay - 45137 Grimsby - 45139 Port Colborne - 45142 South Georgian Bay - 45143 Lake St Clair - 45147 South Lake Huron - 45149 Lake Simcoe - 45151 Lake Nipissing - 45152 North Channel - 45154 Ajax - 45159 Sault Ste. Marie Airport Killarney Greater Sudbury Airport North Bay Airport Gore Bay-Manitoulin Airport Great Duck Island Brockville Grenadier Island Kingston Airport Collingwood Lagoon City Muskoka Airport Parry Sound Harbour Lake Simcoe Regional Airport Wiarton Airport Western Islands Cove Island Goderich Sarnia Chris Hadfield Airport Tobermory Harrow AAFC Long Point Port Weller St. Catharines / Niagara District Airport Southeast Shoal Vineland Station Welland-Pelham Windsor Airport Port Colborne Erieau Point Pelee Burlington Lift Bridge Cobourg Hamilton Munro Int'l Airport Oshawa Executive Airport Point Petre Toronto City Centre Airport CFB Trenton Peterborough Municipal Airport
Legend:
buoy Buoy
land station Land Station

Great Lakes - Lake Huron Area

Another Region

What we are doing

Date modified: